sensor_id;sensor_type;location;lat;lon;timestamp;pressure;altitude;pressure_sealevel;temperature;humidity
80624;BME280;70269;44.768;9.600;2023-11-18T00:01:08;97880.47;;;3.68;61.38
80624;BME280;70269;44.768;9.600;2023-11-18T00:03:34;97890.53;;;3.74;60.76
80624;BME280;70269;44.768;9.600;2023-11-18T00:05:59;97879.03;;;3.82;60.77
80624;BME280;70269;44.768;9.600;2023-11-18T00:08:25;97890.03;;;3.79;60.77
80624;BME280;70269;44.768;9.600;2023-11-18T00:10:50;97891.38;;;3.83;60.26
80624;BME280;70269;44.768;9.600;2023-11-18T00:13:16;97878.84;;;3.75;61.05
80624;BME280;70269;44.768;9.600;2023-11-18T00:15:42;97884.81;;;3.69;61.21
80624;BME280;70269;44.768;9.600;2023-11-18T00:18:08;97880.63;;;3.66;61.96
80624;BME280;70269;44.768;9.600;2023-11-18T00:20:34;97888.34;;;3.70;60.94
80624;BME280;70269;44.768;9.600;2023-11-18T00:23:01;97888.69;;;3.75;60.15
80624;BME280;70269;44.768;9.600;2023-11-18T00:25:30;97893.19;;;3.74;60.61
80624;BME280;70269;44.768;9.600;2023-11-18T00:27:55;97892.00;;;3.69;61.14
80624;BME280;70269;44.768;9.600;2023-11-18T00:30:21;97895.81;;;3.66;61.91
80624;BME280;70269;44.768;9.600;2023-11-18T00:32:47;97896.34;;;3.70;60.40
80624;BME280;70269;44.768;9.600;2023-11-18T00:35:13;97893.69;;;3.78;60.68
80624;BME280;70269;44.768;9.600;2023-11-18T00:37:40;97892.34;;;3.74;60.54
80624;BME280;70269;44.768;9.600;2023-11-18T00:40:07;97902.31;;;3.63;61.59
80624;BME280;70269;44.768;9.600;2023-11-18T00:42:34;97901.28;;;3.56;60.38
80624;BME280;70269;44.768;9.600;2023-11-18T00:44:59;97902.84;;;3.67;60.35
80624;BME280;70269;44.768;9.600;2023-11-18T00:47:24;97899.16;;;3.68;61.02
80624;BME280;70269;44.768;9.600;2023-11-18T00:49:50;97900.78;;;3.61;61.18
80624;BME280;70269;44.768;9.600;2023-11-18T00:52:18;97907.47;;;3.57;60.64
80624;BME280;70269;44.768;9.600;2023-11-18T00:54:45;97901.69;;;3.44;60.08
80624;BME280;70269;44.768;9.600;2023-11-18T00:57:11;97900.94;;;3.51;61.37
80624;BME280;70269;44.768;9.600;2023-11-18T00:59:42;97899.59;;;3.55;60.28
80624;BME280;70269;44.768;9.600;2023-11-18T01:02:08;97914.44;;;3.50;60.71
80624;BME280;70269;44.768;9.600;2023-11-18T01:04:33;97907.69;;;3.46;61.02
80624;BME280;70269;44.768;9.600;2023-11-18T01:06:59;97917.50;;;3.37;60.89
80624;BME280;70269;44.768;9.600;2023-11-18T01:09:25;97907.97;;;3.35;61.80
80624;BME280;70269;44.768;9.600;2023-11-18T01:11:51;97918.50;;;3.36;59.73
80624;BME280;70269;44.768;9.600;2023-11-18T01:14:16;97914.16;;;3.61;59.45
80624;BME280;70269;44.768;9.600;2023-11-18T01:16:43;97912.19;;;3.63;59.73
80624;BME280;70269;44.768;9.600;2023-11-18T01:19:09;97917.75;;;3.52;60.09
80624;BME280;70269;44.768;9.600;2023-11-18T01:21:35;97922.38;;;3.42;61.34
80624;BME280;70269;44.768;9.600;2023-11-18T01:24:02;97930.97;;;3.53;59.96
80624;BME280;70269;44.768;9.600;2023-11-18T01:26:27;97931.88;;;3.62;60.69
80624;BME280;70269;44.768;9.600;2023-11-18T01:28:53;97934.69;;;3.60;60.60
80624;BME280;70269;44.768;9.600;2023-11-18T01:31:19;97945.63;;;3.49;60.36
80624;BME280;70269;44.768;9.600;2023-11-18T01:33:45;97946.41;;;3.42;61.82
80624;BME280;70269;44.768;9.600;2023-11-18T01:36:12;97939.16;;;3.34;61.42
80624;BME280;70269;44.768;9.600;2023-11-18T01:38:38;97939.25;;;3.42;62.32
80624;BME280;70269;44.768;9.600;2023-11-18T01:41:05;97934.69;;;3.35;61.48
80624;BME280;70269;44.768;9.600;2023-11-18T01:43:30;97934.41;;;3.46;61.34
80624;BME280;70269;44.768;9.600;2023-11-18T01:46:02;97945.09;;;3.46;61.78
80624;BME280;70269;44.768;9.600;2023-11-18T01:48:30;97944.44;;;3.44;61.02
80624;BME280;70269;44.768;9.600;2023-11-18T01:50:58;97943.00;;;3.32;61.75
80624;BME280;70269;44.768;9.600;2023-11-18T01:53:25;97947.88;;;3.36;61.16
80624;BME280;70269;44.768;9.600;2023-11-18T01:55:52;97954.34;;;3.34;60.72
80624;BME280;70269;44.768;9.600;2023-11-18T01:58:18;97959.28;;;3.20;62.28
80624;BME280;70269;44.768;9.600;2023-11-18T02:00:45;97965.75;;;3.18;62.15
80624;BME280;70269;44.768;9.600;2023-11-18T02:03:12;97967.28;;;3.03;62.94
80624;BME280;70269;44.768;9.600;2023-11-18T02:05:38;97957.00;;;2.90;63.79
80624;BME280;70269;44.768;9.600;2023-11-18T02:08:04;97961.50;;;2.90;64.53
80624;BME280;70269;44.768;9.600;2023-11-18T02:10:34;97964.94;;;2.82;65.46
80624;BME280;70269;44.768;9.600;2023-11-18T02:13:12;97957.91;;;2.81;63.90
80624;BME280;70269;44.768;9.600;2023-11-18T02:15:38;97961.06;;;2.94;63.64
80624;BME280;70269;44.768;9.600;2023-11-18T02:18:06;97960.59;;;2.81;64.20
80624;BME280;70269;44.768;9.600;2023-11-18T02:20:36;97943.59;;;2.82;63.99
80624;BME280;70269;44.768;9.600;2023-11-18T02:23:02;97955.63;;;2.86;63.30
80624;BME280;70269;44.768;9.600;2023-11-18T02:25:29;97945.94;;;3.03;63.08
80624;BME280;70269;44.768;9.600;2023-11-18T02:27:58;97961.88;;;2.95;63.32
80624;BME280;70269;44.768;9.600;2023-11-18T02:30:24;97961.81;;;2.87;64.59
80624;BME280;70269;44.768;9.600;2023-11-18T02:35:53;97980.75;;;2.66;65.16
80624;BME280;70269;44.768;9.600;2023-11-18T02:38:34;97986.28;;;2.82;64.43
80624;BME280;70269;44.768;9.600;2023-11-18T02:41:08;97989.34;;;2.87;64.31
80624;BME280;70269;44.768;9.600;2023-11-18T02:43:36;97982.63;;;2.83;64.19
80624;BME280;70269;44.768;9.600;2023-11-18T02:46:04;97983.75;;;2.80;64.85
80624;BME280;70269;44.768;9.600;2023-11-18T02:48:32;97983.66;;;2.72;64.72
80624;BME280;70269;44.768;9.600;2023-11-18T02:50:58;97986.50;;;2.71;65.11
80624;BME280;70269;44.768;9.600;2023-11-18T02:53:25;97983.25;;;2.77;64.59
80624;BME280;70269;44.768;9.600;2023-11-18T02:55:50;97987.25;;;2.63;64.51
80624;BME280;70269;44.768;9.600;2023-11-18T02:58:19;97988.38;;;2.61;64.50
80624;BME280;70269;44.768;9.600;2023-11-18T03:00:45;97990.13;;;2.52;64.66
80624;BME280;70269;44.768;9.600;2023-11-18T03:03:11;97985.66;;;2.53;65.36
80624;BME280;70269;44.768;9.600;2023-11-18T03:05:37;97976.81;;;2.52;65.81
80624;BME280;70269;44.768;9.600;2023-11-18T03:08:03;97984.09;;;2.50;65.84
80624;BME280;70269;44.768;9.600;2023-11-18T03:10:34;97985.53;;;2.44;65.66
80624;BME280;70269;44.768;9.600;2023-11-18T03:13:00;97999.25;;;2.50;66.03
80624;BME280;70269;44.768;9.600;2023-11-18T03:15:27;97991.59;;;2.64;65.12
80624;BME280;70269;44.768;9.600;2023-11-18T03:17:54;97998.63;;;2.65;64.73
80624;BME280;70269;44.768;9.600;2023-11-18T03:20:21;97997.53;;;2.58;64.18
80624;BME280;70269;44.768;9.600;2023-11-18T03:22:50;97994.56;;;2.61;66.35
80624;BME280;70269;44.768;9.600;2023-11-18T03:25:17;97998.81;;;2.54;66.20
80624;BME280;70269;44.768;9.600;2023-11-18T03:27:44;97989.97;;;2.54;66.01
80624;BME280;70269;44.768;9.600;2023-11-18T03:30:10;97991.25;;;2.50;66.37
80624;BME280;70269;44.768;9.600;2023-11-18T03:32:38;97987.13;;;2.65;64.80
80624;BME280;70269;44.768;9.600;2023-11-18T03:35:06;97988.84;;;2.56;64.96
80624;BME280;70269;44.768;9.600;2023-11-18T03:37:40;97982.03;;;2.44;66.81
80624;BME280;70269;44.768;9.600;2023-11-18T03:40:13;97984.50;;;2.55;65.68
80624;BME280;70269;44.768;9.600;2023-11-18T03:42:43;97984.50;;;2.55;65.93
80624;BME280;70269;44.768;9.600;2023-11-18T03:45:11;97972.97;;;2.55;65.34
80624;BME280;70269;44.768;9.600;2023-11-18T03:47:39;97984.50;;;2.55;65.62
80624;BME280;70269;44.768;9.600;2023-11-18T03:50:06;97982.13;;;2.52;65.45
80624;BME280;70269;44.768;9.600;2023-11-18T03:52:35;97978.84;;;2.40;66.17
80624;BME280;70269;44.768;9.600;2023-11-18T03:55:03;97976.94;;;2.51;65.55
80624;BME280;70269;44.768;9.600;2023-11-18T03:57:29;97969.09;;;2.49;66.38
80624;BME280;70269;44.768;9.600;2023-11-18T03:59:56;97964.38;;;2.61;65.10
80624;BME280;70269;44.768;9.600;2023-11-18T04:02:22;97971.00;;;2.57;65.23
80624;BME280;70269;44.768;9.600;2023-11-18T04:04:48;97967.88;;;2.61;64.95
80624;BME280;70269;44.768;9.600;2023-11-18T04:07:14;97967.22;;;2.59;65.13
80624;BME280;70269;44.768;9.600;2023-11-18T04:09:40;97962.88;;;2.58;64.21
80624;BME280;70269;44.768;9.600;2023-11-18T04:12:07;97970.50;;;2.71;63.10
80624;BME280;70269;44.768;9.600;2023-11-18T04:14:33;97979.50;;;2.88;64.09
80624;BME280;70269;44.768;9.600;2023-11-18T04:16:58;97984.97;;;2.86;63.84
80624;BME280;70269;44.768;9.600;2023-11-18T04:19:24;97991.91;;;2.79;64.01
80624;BME280;70269;44.768;9.600;2023-11-18T04:21:50;97988.63;;;2.85;64.13
80624;BME280;70269;44.768;9.600;2023-11-18T04:24:15;97986.06;;;2.93;62.73
80624;BME280;70269;44.768;9.600;2023-11-18T04:26:41;97994.81;;;3.03;63.61
80624;BME280;70269;44.768;9.600;2023-11-18T04:29:07;97996.50;;;3.04;63.06
80624;BME280;70269;44.768;9.600;2023-11-18T04:31:33;97992.53;;;3.08;62.25
80624;BME280;70269;44.768;9.600;2023-11-18T04:34:03;97987.88;;;3.10;62.50
80624;BME280;70269;44.768;9.600;2023-11-18T04:36:29;97993.06;;;3.12;62.92
80624;BME280;70269;44.768;9.600;2023-11-18T04:38:57;98000.94;;;3.13;62.42
80624;BME280;70269;44.768;9.600;2023-11-18T04:41:22;97999.31;;;3.03;63.28
80624;BME280;70269;44.768;9.600;2023-11-18T04:43:48;98011.81;;;2.84;64.06
80624;BME280;70269;44.768;9.600;2023-11-18T04:46:14;98011.28;;;2.81;64.82
80624;BME280;70269;44.768;9.600;2023-11-18T04:48:40;98011.03;;;2.74;64.92
80624;BME280;70269;44.768;9.600;2023-11-18T04:51:06;98016.84;;;2.70;64.42
80624;BME280;70269;44.768;9.600;2023-11-18T04:53:31;98022.06;;;2.62;63.43
80624;BME280;70269;44.768;9.600;2023-11-18T04:55:57;98015.66;;;2.55;63.25
80624;BME280;70269;44.768;9.600;2023-11-18T04:58:23;98012.84;;;2.56;63.75
80624;BME280;70269;44.768;9.600;2023-11-18T05:00:49;98013.44;;;2.50;64.17
80624;BME280;70269;44.768;9.600;2023-11-18T05:03:16;98015.78;;;2.53;65.27
80624;BME280;70269;44.768;9.600;2023-11-18T05:05:42;98014.97;;;2.53;65.17
80624;BME280;70269;44.768;9.600;2023-11-18T05:08:17;98009.41;;;2.46;64.90
80624;BME280;70269;44.768;9.600;2023-11-18T05:10:46;97997.91;;;2.46;65.50
80624;BME280;70269;44.768;9.600;2023-11-18T05:13:12;97997.50;;;2.40;65.82
80624;BME280;70269;44.768;9.600;2023-11-18T05:15:40;97998.06;;;2.62;64.81
80624;BME280;70269;44.768;9.600;2023-11-18T05:18:06;97997.81;;;2.55;63.90
80624;BME280;70269;44.768;9.600;2023-11-18T05:20:36;97989.97;;;2.54;64.07
80624;BME280;70269;44.768;9.600;2023-11-18T05:23:02;97998.03;;;2.44;64.41
80624;BME280;70269;44.768;9.600;2023-11-18T05:25:28;97993.41;;;2.46;65.19
80624;BME280;70269;44.768;9.600;2023-11-18T05:27:54;97998.19;;;2.42;65.05
80624;BME280;70269;44.768;9.600;2023-11-18T05:30:19;97993.53;;;2.44;64.72
80624;BME280;70269;44.768;9.600;2023-11-18T05:32:45;97992.63;;;2.54;64.70
80624;BME280;70269;44.768;9.600;2023-11-18T05:35:11;97989.53;;;2.58;64.20
80624;BME280;70269;44.768;9.600;2023-11-18T05:37:38;97994.03;;;2.58;64.17
80624;BME280;70269;44.768;9.600;2023-11-18T05:40:06;97990.81;;;2.54;64.34
80624;BME280;70269;44.768;9.600;2023-11-18T05:42:36;97998.50;;;2.39;65.01
80624;BME280;70269;44.768;9.600;2023-11-18T05:45:03;98012.91;;;2.47;64.64
80624;BME280;70269;44.768;9.600;2023-11-18T05:47:29;98003.66;;;2.41;65.20
80624;BME280;70269;44.768;9.600;2023-11-18T05:49:55;98007.34;;;2.40;64.92
80624;BME280;70269;44.768;9.600;2023-11-18T05:52:21;98002.88;;;2.58;63.73
80624;BME280;70269;44.768;9.600;2023-11-18T05:54:48;98005.38;;;2.60;64.20
80624;BME280;70269;44.768;9.600;2023-11-18T05:57:17;98010.56;;;2.61;64.24
80624;BME280;70269;44.768;9.600;2023-11-18T05:59:43;98006.44;;;2.67;63.83
80624;BME280;70269;44.768;9.600;2023-11-18T06:02:09;98004.47;;;2.69;64.06
80624;BME280;70269;44.768;9.600;2023-11-18T06:04:43;97990.38;;;2.59;63.62
80624;BME280;70269;44.768;9.600;2023-11-18T06:07:08;97998.88;;;2.44;64.10
80624;BME280;70269;44.768;9.600;2023-11-18T06:09:34;98018.63;;;2.52;63.36
80624;BME280;70269;44.768;9.600;2023-11-18T06:11:59;98018.06;;;2.48;63.34
80624;BME280;70269;44.768;9.600;2023-11-18T06:14:26;98025.53;;;2.44;64.02
80624;BME280;70269;44.768;9.600;2023-11-18T06:16:52;98038.63;;;2.38;64.30
80624;BME280;70269;44.768;9.600;2023-11-18T06:19:18;98046.13;;;2.25;65.21
80624;BME280;70269;44.768;9.600;2023-11-18T06:21:44;98042.50;;;2.16;65.95
80624;BME280;70269;44.768;9.600;2023-11-18T06:24:09;98035.91;;;2.20;67.09
80624;BME280;70269;44.768;9.600;2023-11-18T06:26:36;98041.69;;;2.16;66.49
80624;BME280;70269;44.768;9.600;2023-11-18T06:29:02;98047.16;;;2.14;67.73
80624;BME280;70269;44.768;9.600;2023-11-18T06:31:29;98046.41;;;2.22;66.88
80624;BME280;70269;44.768;9.600;2023-11-18T06:33:55;98052.28;;;2.25;66.45
80624;BME280;70269;44.768;9.600;2023-11-18T06:36:21;98050.47;;;2.26;67.23
80624;BME280;70269;44.768;9.600;2023-11-18T06:38:52;98046.50;;;2.30;65.70
80624;BME280;70269;44.768;9.600;2023-11-18T06:41:22;98056.25;;;2.21;67.69
80624;BME280;70269;44.768;9.600;2023-11-18T06:43:49;98054.75;;;2.36;65.99
80624;BME280;70269;44.768;9.600;2023-11-18T06:46:28;98056.75;;;2.34;66.50
80624;BME280;70269;44.768;9.600;2023-11-18T06:49:02;98048.63;;;2.26;66.59
80624;BME280;70269;44.768;9.600;2023-11-18T06:51:34;98053.66;;;2.29;66.89
80624;BME280;70269;44.768;9.600;2023-11-18T06:54:00;98052.66;;;2.40;65.86
80624;BME280;70269;44.768;9.600;2023-11-18T06:56:29;98054.75;;;2.36;66.10
80624;BME280;70269;44.768;9.600;2023-11-18T06:58:55;98057.03;;;2.31;66.82
80624;BME280;70269;44.768;9.600;2023-11-18T07:01:21;98056.31;;;2.29;67.20
80624;BME280;70269;44.768;9.600;2023-11-18T07:03:47;98062.66;;;2.28;66.42
80624;BME280;70269;44.768;9.600;2023-11-18T07:06:17;98049.75;;;2.33;65.82
80624;BME280;70269;44.768;9.600;2023-11-18T07:08:52;98058.56;;;2.34;65.61
80624;BME280;70269;44.768;9.600;2023-11-18T07:11:19;98064.50;;;2.28;65.85
80624;BME280;70269;44.768;9.600;2023-11-18T07:13:47;98066.31;;;2.27;66.02
80624;BME280;70269;44.768;9.600;2023-11-18T07:16:13;98061.41;;;2.23;66.14
80624;BME280;70269;44.768;9.600;2023-11-18T07:18:40;98056.06;;;2.23;66.38
80624;BME280;70269;44.768;9.600;2023-11-18T07:21:07;98056.50;;;2.28;66.05
80624;BME280;70269;44.768;9.600;2023-11-18T07:23:35;98066.72;;;2.23;67.20
80624;BME280;70269;44.768;9.600;2023-11-18T07:26:02;98057.72;;;2.33;66.04
80624;BME280;70269;44.768;9.600;2023-11-18T07:28:29;98076.97;;;2.27;65.77
80624;BME280;70269;44.768;9.600;2023-11-18T07:30:56;98082.28;;;2.64;64.37
80624;BME280;70269;44.768;9.600;2023-11-18T07:33:24;98085.03;;;3.17;63.70
80624;BME280;70269;44.768;9.600;2023-11-18T07:35:49;98098.56;;;3.69;59.53
80624;BME280;70269;44.768;9.600;2023-11-18T07:38:16;98097.78;;;4.02;58.79
80624;BME280;70269;44.768;9.600;2023-11-18T07:40:42;98093.09;;;4.22;56.18
80624;BME280;70269;44.768;9.600;2023-11-18T07:43:17;98090.25;;;4.50;55.50
80624;BME280;70269;44.768;9.600;2023-11-18T07:45:43;98101.06;;;4.82;57.03
80624;BME280;70269;44.768;9.600;2023-11-18T07:48:10;98101.78;;;4.92;55.18
80624;BME280;70269;44.768;9.600;2023-11-18T07:50:38;98096.63;;;5.07;53.59
80624;BME280;70269;44.768;9.600;2023-11-18T07:53:06;98094.66;;;5.09;53.76
80624;BME280;70269;44.768;9.600;2023-11-18T07:55:33;98095.69;;;5.16;54.80
80624;BME280;70269;44.768;9.600;2023-11-18T07:58:11;98096.03;;;5.29;52.96
80624;BME280;70269;44.768;9.600;2023-11-18T08:00:41;98095.03;;;5.38;53.39
80624;BME280;70269;44.768;9.600;2023-11-18T08:03:11;98096.75;;;5.55;52.05
80624;BME280;70269;44.768;9.600;2023-11-18T08:05:40;98096.25;;;5.60;51.82
80624;BME280;70269;44.768;9.600;2023-11-18T08:08:07;98100.44;;;5.70;53.11
80624;BME280;70269;44.768;9.600;2023-11-18T08:10:36;98099.47;;;5.96;52.08
80624;BME280;70269;44.768;9.600;2023-11-18T08:13:07;98101.28;;;6.28;49.86
80624;BME280;70269;44.768;9.600;2023-11-18T08:15:40;98100.41;;;6.43;49.26
80624;BME280;70269;44.768;9.600;2023-11-18T08:18:09;98113.13;;;6.58;49.25
80624;BME280;70269;44.768;9.600;2023-11-18T08:20:38;98114.91;;;6.73;48.20
80624;BME280;70269;44.768;9.600;2023-11-18T08:23:03;98099.59;;;6.90;49.64
80624;BME280;70269;44.768;9.600;2023-11-18T08:25:32;98089.91;;;7.12;49.47
80624;BME280;70269;44.768;9.600;2023-11-18T08:27:59;98086.53;;;7.18;49.14
80624;BME280;70269;44.768;9.600;2023-11-18T08:30:26;98089.66;;;7.29;49.72
80624;BME280;70269;44.768;9.600;2023-11-18T08:32:51;98092.28;;;7.38;49.55
80624;BME280;70269;44.768;9.600;2023-11-18T08:35:18;98088.47;;;7.55;51.33
80624;BME280;70269;44.768;9.600;2023-11-18T08:37:44;98099.25;;;7.78;49.78
80624;BME280;70269;44.768;9.600;2023-11-18T08:40:11;98092.53;;;7.96;50.06
80624;BME280;70269;44.768;9.600;2023-11-18T08:42:50;98081.25;;;8.16;49.65
80624;BME280;70269;44.768;9.600;2023-11-18T08:45:17;98085.00;;;8.15;48.72
80624;BME280;70269;44.768;9.600;2023-11-18T08:47:45;98079.63;;;8.29;48.61
80624;BME280;70269;44.768;9.600;2023-11-18T08:50:16;98086.16;;;8.35;47.45
80624;BME280;70269;44.768;9.600;2023-11-18T08:52:45;98083.22;;;8.44;47.03
80624;BME280;70269;44.768;9.600;2023-11-18T08:55:15;98083.09;;;8.52;47.62
80624;BME280;70269;44.768;9.600;2023-11-18T08:57:46;98087.56;;;8.60;47.83
80624;BME280;70269;44.768;9.600;2023-11-18T09:00:29;98100.94;;;8.53;45.97
80624;BME280;70269;44.768;9.600;2023-11-18T09:03:18;98101.59;;;8.70;46.96
80624;BME280;70269;44.768;9.600;2023-11-18T09:05:58;98105.13;;;8.85;47.25
80624;BME280;70269;44.768;9.600;2023-11-18T09:08:27;98107.06;;;8.91;46.44
80624;BME280;70269;44.768;9.600;2023-11-18T09:10:56;98105.97;;;9.01;46.87
80624;BME280;70269;44.768;9.600;2023-11-18T09:13:23;98108.47;;;9.02;44.27
80624;BME280;70269;44.768;9.600;2023-11-18T09:15:55;98104.25;;;9.14;45.83
80624;BME280;70269;44.768;9.600;2023-11-18T09:18:22;98097.53;;;9.40;46.21
80624;BME280;70269;44.768;9.600;2023-11-18T09:20:48;98094.06;;;9.46;45.62
80624;BME280;70269;44.768;9.600;2023-11-18T09:23:14;98089.75;;;9.51;45.77
80624;BME280;70269;44.768;9.600;2023-11-18T09:25:42;98088.63;;;9.82;44.32
80624;BME280;70269;44.768;9.600;2023-11-18T09:28:07;98078.06;;;10.08;44.44
80624;BME280;70269;44.768;9.600;2023-11-18T09:30:37;98079.16;;;10.13;42.58
80624;BME280;70269;44.768;9.600;2023-11-18T09:33:04;98088.38;;;9.77;40.16
80624;BME280;70269;44.768;9.600;2023-11-18T09:35:40;98082.06;;;9.69;41.60
80624;BME280;70269;44.768;9.600;2023-11-18T09:38:06;98087.13;;;10.00;43.30
80624;BME280;70269;44.768;9.600;2023-11-18T09:40:33;98090.78;;;10.14;40.52
80624;BME280;70269;44.768;9.600;2023-11-18T09:43:09;98102.00;;;10.11;41.66
80624;BME280;70269;44.768;9.600;2023-11-18T09:45:36;98105.72;;;9.89;41.60
80624;BME280;70269;44.768;9.600;2023-11-18T09:48:02;98102.00;;;10.11;41.15
80624;BME280;70269;44.768;9.600;2023-11-18T09:50:32;98115.28;;;10.12;42.01
80624;BME280;70269;44.768;9.600;2023-11-18T09:53:05;98117.66;;;10.01;39.64
80624;BME280;70269;44.768;9.600;2023-11-18T09:55:59;98119.47;;;10.15;38.98
80624;BME280;70269;44.768;9.600;2023-11-18T09:58:37;98109.47;;;10.30;37.21
80624;BME280;70269;44.768;9.600;2023-11-18T10:01:06;98106.13;;;10.28;36.80
80624;BME280;70269;44.768;9.600;2023-11-18T10:03:32;98109.66;;;10.29;37.73
80624;BME280;70269;44.768;9.600;2023-11-18T10:06:05;98107.38;;;10.32;36.57
80624;BME280;70269;44.768;9.600;2023-11-18T10:08:31;98102.63;;;10.34;38.26
80624;BME280;70269;44.768;9.600;2023-11-18T10:10:57;98088.88;;;10.57;38.16
80624;BME280;70269;44.768;9.600;2023-11-18T10:13:31;98090.03;;;10.76;35.58
80624;BME280;70269;44.768;9.600;2023-11-18T10:16:01;98072.53;;;11.06;37.71
80624;BME280;70269;44.768;9.600;2023-11-18T10:18:27;98077.38;;;11.24;37.27
80624;BME280;70269;44.768;9.600;2023-11-18T10:20:53;98068.41;;;11.23;37.34
80624;BME280;70269;44.768;9.600;2023-11-18T10:23:21;98065.56;;;11.31;37.89
80624;BME280;70269;44.768;9.600;2023-11-18T10:25:48;98070.16;;;11.38;38.26
80624;BME280;70269;44.768;9.600;2023-11-18T10:30:48;98066.25;;;11.47;36.25
80624;BME280;70269;44.768;9.600;2023-11-18T10:33:14;98064.59;;;11.59;35.31
80624;BME280;70269;44.768;9.600;2023-11-18T10:35:51;98069.69;;;11.88;37.04
80624;BME280;70269;44.768;9.600;2023-11-18T10:38:18;98061.97;;;11.85;34.50
80624;BME280;70269;44.768;9.600;2023-11-18T10:40:44;98061.97;;;11.79;35.54
80624;BME280;70269;44.768;9.600;2023-11-18T10:43:13;98067.63;;;11.97;34.86
80624;BME280;70269;44.768;9.600;2023-11-18T10:45:42;98060.53;;;12.09;33.82
80624;BME280;70269;44.768;9.600;2023-11-18T10:48:08;98060.53;;;12.09;33.38
80624;BME280;70269;44.768;9.600;2023-11-18T10:50:34;98055.31;;;12.07;32.36
80624;BME280;70269;44.768;9.600;2023-11-18T10:53:00;98054.69;;;12.19;33.24
80624;BME280;70269;44.768;9.600;2023-11-18T10:55:39;98048.66;;;12.23;33.33
80624;BME280;70269;44.768;9.600;2023-11-18T10:58:10;98053.47;;;12.28;33.93
80624;BME280;70269;44.768;9.600;2023-11-18T11:00:46;98050.13;;;12.26;34.31
80624;BME280;70269;44.768;9.600;2023-11-18T11:03:14;98044.28;;;12.22;31.94
80624;BME280;70269;44.768;9.600;2023-11-18T11:05:40;98042.59;;;12.41;34.90
80624;BME280;70269;44.768;9.600;2023-11-18T11:08:08;98043.22;;;12.43;31.81
80624;BME280;70269;44.768;9.600;2023-11-18T11:10:34;98049.47;;;12.50;30.30
80624;BME280;70269;44.768;9.600;2023-11-18T11:13:05;98042.16;;;12.64;30.89
80624;BME280;70269;44.768;9.600;2023-11-18T11:15:40;98048.00;;;12.54;28.78
80624;BME280;70269;44.768;9.600;2023-11-18T11:18:08;98046.91;;;12.75;28.85
80624;BME280;70269;44.768;9.600;2023-11-18T11:20:54;98046.69;;;12.83;27.46
80624;BME280;70269;44.768;9.600;2023-11-18T11:23:49;98051.03;;;12.90;26.05
80624;BME280;70269;44.768;9.600;2023-11-18T11:26:40;98057.06;;;12.99;26.11
80624;BME280;70269;44.768;9.600;2023-11-18T11:29:18;98061.44;;;13.07;26.58
80624;BME280;70269;44.768;9.600;2023-11-18T11:32:02;98058.47;;;13.21;28.26
80624;BME280;70269;44.768;9.600;2023-11-18T11:34:32;98071.19;;;13.21;27.75
80624;BME280;70269;44.768;9.600;2023-11-18T11:37:00;98069.09;;;13.23;29.93
80624;BME280;70269;44.768;9.600;2023-11-18T11:39:26;98053.06;;;13.15;29.13
80624;BME280;70269;44.768;9.600;2023-11-18T11:41:56;98042.41;;;13.20;27.16
80624;BME280;70269;44.768;9.600;2023-11-18T11:44:24;98042.41;;;13.26;27.85
80624;BME280;70269;44.768;9.600;2023-11-18T11:46:58;98043.59;;;13.37;27.76
80624;BME280;70269;44.768;9.600;2023-11-18T11:49:26;98039.88;;;13.25;26.07
80624;BME280;70269;44.768;9.600;2023-11-18T11:52:01;98030.25;;;13.29;26.02
80624;BME280;70269;44.768;9.600;2023-11-18T11:54:37;98030.28;;;13.22;27.97
80624;BME280;70269;44.768;9.600;2023-11-18T11:57:04;98021.28;;;13.28;29.02
80624;BME280;70269;44.768;9.600;2023-11-18T12:02:32;98022.31;;;13.34;31.37
80624;BME280;70269;44.768;9.600;2023-11-18T12:05:24;98023.16;;;13.28;29.52
80624;BME280;70269;44.768;9.600;2023-11-18T12:07:55;98032.56;;;13.32;27.93
80624;BME280;70269;44.768;9.600;2023-11-18T12:10:21;98028.44;;;13.16;28.27
80624;BME280;70269;44.768;9.600;2023-11-18T12:13:07;98022.41;;;13.08;28.64
80624;BME280;70269;44.768;9.600;2023-11-18T12:15:53;98020.56;;;13.02;29.09
80624;BME280;70269;44.768;9.600;2023-11-18T12:18:20;98024.50;;;13.06;29.29
80624;BME280;70269;44.768;9.600;2023-11-18T12:20:47;98023.28;;;13.02;28.96
80624;BME280;70269;44.768;9.600;2023-11-18T12:23:16;98016.03;;;12.82;31.09
80624;BME280;70269;44.768;9.600;2023-11-18T12:25:46;98016.22;;;12.87;28.79
80624;BME280;70269;44.768;9.600;2023-11-18T12:28:20;98016.84;;;12.89;30.70
80624;BME280;70269;44.768;9.600;2023-11-18T12:30:48;98011.63;;;12.88;30.29
80624;BME280;70269;44.768;9.600;2023-11-18T12:33:23;98001.81;;;12.93;34.21
80624;BME280;70269;44.768;9.600;2023-11-18T12:49:09;97991.25;;;12.66;30.47
80624;BME280;70269;44.768;9.600;2023-11-18T12:51:42;97992.75;;;12.62;30.52
80624;BME280;70269;44.768;9.600;2023-11-18T12:54:10;97990.88;;;12.62;29.76
80624;BME280;70269;44.768;9.600;2023-11-18T12:56:38;97985.84;;;12.59;30.57
80624;BME280;70269;44.768;9.600;2023-11-18T12:59:04;97989.41;;;12.60;30.60
80624;BME280;70269;44.768;9.600;2023-11-18T13:01:34;97997.50;;;12.66;30.61
80624;BME280;70269;44.768;9.600;2023-11-18T13:04:04;97988.56;;;12.59;31.28
80624;BME280;70269;44.768;9.600;2023-11-18T13:06:30;97978.56;;;12.53;30.92
80624;BME280;70269;44.768;9.600;2023-11-18T13:08:56;97976.28;;;12.56;31.83
80624;BME280;70269;44.768;9.600;2023-11-18T13:11:23;97971.28;;;12.53;31.66
80624;BME280;70269;44.768;9.600;2023-11-18T13:13:51;97987.31;;;12.62;30.43
80624;BME280;70269;44.768;9.600;2023-11-18T13:16:17;97988.78;;;12.64;30.76
80624;BME280;70269;44.768;9.600;2023-11-18T13:18:44;97978.78;;;12.58;31.13
80624;BME280;70269;44.768;9.600;2023-11-18T13:21:14;97983.78;;;12.61;31.80
80624;BME280;70269;44.768;9.600;2023-11-18T13:23:41;97979.84;;;12.57;32.55
80624;BME280;70269;44.768;9.600;2023-11-18T13:26:07;97987.53;;;12.53;33.38
80624;BME280;70269;44.768;9.600;2023-11-18T13:28:37;97985.47;;;12.49;33.49
80624;BME280;70269;44.768;9.600;2023-11-18T13:31:05;97993.03;;;12.40;33.99
80624;BME280;70269;44.768;9.600;2023-11-18T13:33:38;97989.69;;;12.38;33.46
80624;BME280;70269;44.768;9.600;2023-11-18T13:36:08;98005.50;;;12.35;33.47